Time;durP1;ratioP1;P1;durP2;ratioP2;P2;SDS_P1;SDS_P2;PMS_P1;PMS_P2;Temp;Humidity;BMP_temperature;BMP_pressure;BME280_temperature;BME280_humidity;BME280_pressure;Samples;Min_cycle;Max_cycle;Signal;HPM_P1;HPM_P2
2022/06/17 00:01:04;;;;;;;9.40;4.90;;;;;;;11.12;100.00;155317.41;4930310;29;20083;-81
2022/06/17 00:03:31;;;;;;;9.70;5.10;;;;;;;11.12;100.00;155317.41;4931885;29;20517;-82
2022/06/17 00:06:01;;;;;;;11.88;4.75;;;;;;;11.14;100.00;155322.53;4942400;29;20042;-82
2022/06/17 00:08:43;;;;;;;13.70;5.15;;;;;;;11.11;100.00;155316.09;4929292;28;20034;-83
2022/06/17 00:11:21;;;;;;;11.80;5.40;;;;;;;11.07;100.00;155307.09;4926072;28;20071;-82
2022/06/17 00:13:47;;;;;;;8.25;4.93;;;;;;;10.96;100.00;155277.59;4928186;28;20042;-82
2022/06/17 00:16:15;;;;;;;9.82;5.03;;;;;;;10.93;100.00;155269.94;4959478;28;20433;-83
2022/06/17 00:18:42;;;;;;;9.63;4.63;;;;;;;10.93;100.00;155269.94;4939383;28;20039;-81
2022/06/17 00:21:19;;;;;;;8.90;4.85;;;;;;;10.95;100.00;155275.06;4931418;28;20031;-81
2022/06/17 00:23:45;;;;;;;8.60;4.93;;;;;;;11.00;100.00;155287.88;4953083;28;20042;-81
2022/06/17 00:26:11;;;;;;;10.13;5.18;;;;;;;10.91;100.00;155266.06;4950277;29;20039;-81
2022/06/17 00:28:36;;;;;;;9.77;5.43;;;;;;;10.81;100.00;155241.69;4934378;29;20035;-80
2022/06/17 00:31:02;;;;;;;10.32;5.93;;;;;;;10.75;100.00;155226.28;4950801;28;20067;-82
2022/06/17 00:33:28;;;;;;;10.93;5.75;;;;;;;10.73;100.00;155221.16;4949350;29;20043;-82
2022/06/17 00:35:55;;;;;;;9.27;5.40;;;;;;;10.74;100.00;155223.72;4952409;28;20039;-81
2022/06/17 00:38:23;;;;;;;8.20;5.43;;;;;;;10.66;100.00;155203.19;4956503;28;20158;-85
2022/06/17 00:40:51;;;;;;;9.98;5.43;;;;;;;10.58;100.00;155182.66;4937781;28;20066;-81
2022/06/17 00:43:29;;;;;;;11.13;6.50;;;;;;;10.48;100.00;155159.56;4949160;28;20067;-83
2022/06/17 00:46:19;;;;;;;7.68;5.70;;;;;;;10.48;100.00;155158.31;4954235;28;20039;-84
2022/06/17 00:48:58;;;;;;;12.95;5.95;;;;;;;10.44;100.00;155149.31;4942732;28;20062;-84
2022/06/17 00:51:28;;;;;;;11.55;5.78;;;;;;;10.37;100.00;155131.34;4947384;28;20114;-82
2022/06/17 00:54:04;;;;;;;8.65;5.65;;;;;;;10.36;100.00;155127.50;4956880;28;20038;-83
2022/06/17 00:56:32;;;;;;;8.52;5.18;;;;;;;10.29;100.00;155112.06;4956917;29;20604;-80
2022/06/17 00:58:58;;;;;;;11.35;5.68;;;;;;;10.29;100.00;155112.06;4935043;29;20046;-80
2022/06/17 01:01:25;;;;;;;9.70;5.07;;;;;;;10.21;100.00;155090.22;4954653;28;20138;-79
2022/06/17 01:03:54;;;;;;;9.32;5.85;;;;;;;10.18;100.00;155083.84;4955723;28;20043;-81
2022/06/17 01:06:26;;;;;;;12.95;5.70;;;;;;;10.10;100.00;155064.59;4935428;28;20402;-82
2022/06/17 01:12:00;;;;;;;10.15;5.57;;;;;;;10.06;100.00;155053.09;4951557;29;20034;-81
2022/06/17 01:14:27;;;;;;;9.48;5.60;;;;;;;10.12;100.00;155069.72;4945660;28;20046;-79
2022/06/17 01:16:55;;;;;;;7.25;5.35;;;;;;;10.02;100.00;155042.78;4938930;28;20035;-79
2022/06/17 01:19:35;;;;;;;11.32;5.90;;;;;;;10.04;100.00;155049.22;4982089;28;20054;-85
2022/06/17 01:22:28;;;;;;;9.60;5.22;;;;;;;10.09;100.00;155062.03;4934958;28;20042;-82
2022/06/17 01:25:01;;;;;;;10.85;6.90;;;;;;;10.16;100.00;155078.72;4950498;28;20058;-86
2022/06/17 01:27:31;;;;;;;8.57;5.57;;;;;;;10.18;100.00;155083.84;4944641;28;20039;-87
2022/06/17 01:29:57;;;;;;;7.80;6.10;;;;;;;10.29;100.00;155110.78;4967960;29;20035;-86
2022/06/17 01:32:27;;;;;;;10.73;6.40;;;;;;;10.28;100.00;155108.19;4957619;28;20039;-81
2022/06/17 01:34:53;;;;;;;12.07;6.65;;;;;;;10.25;100.00;155101.81;4968464;28;20044;-84
2022/06/17 01:37:20;;;;;;;11.23;6.40;;;;;;;10.15;100.00;155076.13;4947256;28;20094;-81
2022/06/17 01:39:45;;;;;;;12.48;6.97;;;;;;;10.10;100.00;155064.59;4955853;28;20042;-84
2022/06/17 01:42:12;;;;;;;7.93;6.00;;;;;;;10.16;100.00;155077.44;4944916;29;20036;-81
2022/06/17 01:44:40;;;;;;;10.82;6.60;;;;;;;10.14;100.00;155074.84;4944963;29;20035;-83
2022/06/17 01:47:11;;;;;;;10.90;6.35;;;;;;;10.17;100.00;155081.31;4944919;29;20039;-81
2022/06/17 01:49:49;;;;;;;9.00;6.47;;;;;;;10.14;100.00;155073.59;4948908;29;20070;-82
2022/06/17 01:52:22;;;;;;;8.88;6.18;;;;;;;10.08;100.00;155059.47;4942306;28;20692;-82
2022/06/17 01:55:06;;;;;;;8.32;6.22;;;;;;;10.05;100.00;155050.50;4960868;28;20053;-84
2022/06/17 01:57:36;;;;;;;9.07;6.25;;;;;;;10.04;100.00;155047.91;4935675;29;20398;-85
2022/06/17 02:00:16;;;;;;;11.35;7.00;;;;;;;10.07;100.00;155056.91;4926287;29;20043;-81
2022/06/17 02:02:47;;;;;;;12.95;6.53;;;;;;;10.06;100.00;155053.09;4924053;29;20043;-81
2022/06/17 02:05:13;;;;;;;11.02;6.75;;;;;;;9.90;100.00;155014.56;4929615;28;20039;-81
2022/06/17 02:07:53;;;;;;;10.25;6.82;;;;;;;9.90;100.00;155014.56;4951842;28;20057;-84
2022/06/17 02:10:27;;;;;;;10.90;6.13;;;;;;;9.90;100.00;155013.31;4950124;28;20105;-82
2022/06/17 02:12:55;;;;;;;10.15;6.90;;;;;;;9.89;100.00;155012.03;4956224;28;20110;-83
2022/06/17 02:15:23;;;;;;;13.93;6.68;;;;;;;9.78;100.00;154983.81;4930668;29;20066;-82
2022/06/17 02:17:59;;;;;;;10.10;6.68;;;;;;;9.82;100.00;154992.81;4955934;28;20035;-83
2022/06/17 02:20:32;;;;;;;9.57;6.35;;;;;;;9.73;100.00;154970.97;4944897;29;20027;-84
2022/06/17 02:23:00;;;;;;;9.27;6.20;;;;;;;9.81;100.00;154991.47;4952990;29;20035;-83
2022/06/17 02:25:30;;;;;;;9.15;6.07;;;;;;;9.82;100.00;154992.81;4972344;28;20035;-84
2022/06/17 02:28:02;;;;;;;10.35;6.63;;;;;;;9.73;100.00;154972.25;4938139;29;20110;-82
2022/06/17 02:30:30;;;;;;;9.65;6.40;;;;;;;9.58;100.00;154933.78;4930527;28;20031;-84
2022/06/17 02:32:59;;;;;;;11.40;6.95;;;;;;;9.65;100.00;154951.75;4943584;29;20031;-83
2022/06/17 02:35:36;;;;;;;11.02;6.30;;;;;;;9.63;100.00;154946.63;4950243;28;20043;-81
2022/06/17 02:38:05;;;;;;;10.70;6.43;;;;;;;9.63;100.00;154945.38;4947549;28;20047;-83
2022/06/17 02:40:35;;;;;;;9.93;6.50;;;;;;;9.59;100.00;154936.38;4955661;28;20030;-82
2022/06/17 02:43:04;;;;;;;11.63;6.28;;;;;;;9.59;100.00;154935.06;4962971;28;20047;-84
2022/06/17 02:45:35;;;;;;;11.68;6.78;;;;;;;9.59;100.00;154935.06;4947117;29;20038;-82
2022/06/17 02:48:07;;;;;;;8.50;6.50;;;;;;;9.63;100.00;154945.38;4936429;29;20125;-82
2022/06/17 02:50:33;;;;;;;12.80;6.28;;;;;;;9.58;100.00;154933.78;4939336;29;20039;-82
2022/06/17 02:53:01;;;;;;;8.00;6.60;;;;;;;9.56;100.00;154928.66;4937897;28;20039;-82
2022/06/17 02:55:35;;;;;;;8.55;6.60;;;;;;;9.52;100.00;154919.69;4952422;29;20031;-82
2022/06/17 02:58:17;;;;;;;8.93;6.78;;;;;;;9.38;100.00;154882.50;4936291;29;20153;-81
2022/06/17 03:00:45;;;;;;;13.70;7.03;;;;;;;9.49;100.00;154912.03;4954755;29;20498;-82
2022/06/17 03:03:15;;;;;;;10.50;7.00;;;;;;;9.38;100.00;154882.50;4944938;28;20098;-82
2022/06/17 03:05:43;;;;;;;9.43;6.78;;;;;;;9.46;100.00;154904.31;4932147;29;20110;-82
2022/06/17 03:08:37;;;;;;;9.63;7.03;;;;;;;9.45;100.00;154900.47;4948022;28;20533;-82
2022/06/17 03:11:04;;;;;;;10.57;7.50;;;;;;;9.46;100.00;154904.31;4947466;28;20046;-81
2022/06/17 03:13:53;;;;;;;13.18;7.55;;;;;;;9.56;100.00;154928.66;4921280;28;20106;-84
2022/06/17 03:16:22;;;;;;;10.75;7.22;;;;;;;9.58;100.00;154933.78;4946679;28;20226;-83
2022/06/17 03:18:51;;;;;;;11.45;6.82;;;;;;;9.59;100.00;154936.38;4936474;29;20047;-80
2022/06/17 03:21:23;;;;;;;10.82;6.93;;;;;;;9.67;100.00;154956.88;4956103;28;20031;-83
2022/06/17 03:24:28;;;;;;;10.52;6.07;;;;;;;9.73;100.00;154972.25;4942384;29;20047;-83
2022/06/17 03:27:16;;;;;;;9.00;6.97;;;;;;;9.82;100.00;154994.06;4953569;29;20516;-82
2022/06/17 03:29:44;;;;;;;14.80;7.68;;;;;;;9.79;100.00;154985.09;4956465;28;20034;-81
2022/06/17 03:32:19;;;;;;;9.88;6.90;;;;;;;9.66;100.00;154953.03;4945573;28;20454;-83
2022/06/17 03:34:53;;;;;;;10.88;7.47;;;;;;;9.72;100.00;154969.72;4942660;29;20050;-84
2022/06/17 03:37:22;;;;;;;15.88;7.53;;;;;;;9.78;100.00;154983.81;4940145;28;20035;-82
2022/06/17 03:39:58;;;;;;;12.70;7.72;;;;;;;9.75;100.00;154977.38;4942405;28;20074;-82
2022/06/17 03:42:33;;;;;;;11.25;7.30;;;;;;;9.87;100.00;155006.91;4945029;28;20019;-82
2022/06/17 03:45:05;;;;;;;9.90;7.05;;;;;;;10.01;100.00;155040.25;4944784;29;20035;-82
2022/06/17 03:47:48;;;;;;;10.02;7.30;;;;;;;10.09;100.00;155062.03;4936526;29;20253;-84
2022/06/17 03:50:25;;;;;;;13.75;7.28;;;;;;;10.10;100.00;155064.59;4940073;29;20039;-81
2022/06/17 03:52:57;;;;;;;11.30;7.22;;;;;;;10.22;100.00;155092.81;4957541;28;20043;-82
2022/06/17 03:55:23;;;;;;;11.23;7.82;;;;;;;10.46;100.00;155154.44;4965744;28;20031;-83
2022/06/17 03:57:53;;;;;;;13.25;7.63;;;;;;;10.57;100.00;155180.06;4956090;29;20107;-82
2022/06/17 04:00:31;;;;;;;10.55;7.20;;;;;;;10.69;100.00;155210.88;4954038;29;20036;-80
2022/06/17 04:03:02;;;;;;;10.45;7.05;;;;;;;10.70;100.00;155213.47;4941366;29;20398;-83
2022/06/17 04:05:29;;;;;;;9.68;6.50;;;;;;;10.79;100.00;155235.25;4941482;28;20111;-84
2022/06/17 04:07:56;;;;;;;12.65;7.03;;;;;;;10.84;100.00;155249.38;4954643;28;20078;-83
2022/06/17 04:10:26;;;;;;;11.10;7.43;;;;;;;10.94;100.00;155272.47;4935495;28;20047;-81
2022/06/17 04:12:57;;;;;;;9.43;6.90;;;;;;;10.90;100.00;155263.50;4953087;29;20031;-84
2022/06/17 04:15:44;;;;;;;10.07;7.40;;;;;;;11.02;100.00;155293.00;4980451;28;20047;-84
2022/06/17 04:18:10;;;;;;;12.33;7.27;;;;;;;11.11;100.00;155316.09;4951070;28;20040;-80
2022/06/17 04:20:56;;;;;;;11.27;6.78;;;;;;;11.20;100.00;155339.19;4943484;29;20041;-83
2022/06/17 04:23:28;;;;;;;11.43;6.35;;;;;;;11.19;100.00;155336.66;4962791;28;20051;-83
2022/06/17 04:26:17;;;;;;;11.45;6.70;;;;;;;11.21;100.00;155341.78;4965645;28;20043;-83
2022/06/17 04:28:48;;;;;;;9.07;7.00;;;;;;;11.33;100.00;155370.03;4962733;28;20046;-82
2022/06/17 04:31:20;;;;;;;9.23;6.40;;;;;;;11.43;100.00;155395.69;4939430;28;20031;-83
2022/06/17 04:33:54;;;;;;;15.57;7.32;;;;;;;11.39;100.00;155386.69;4946444;29;20034;-84
2022/06/17 04:36:41;;;;;;;9.80;7.13;;;;;;;11.39;100.00;155385.41;4929542;28;20065;-84
2022/06/17 04:39:36;;;;;;;10.55;6.18;;;;;;;11.45;100.00;155402.13;4963227;28;20078;-79
2022/06/17 04:42:42;;;;;;;10.15;6.97;;;;;;;11.63;100.00;155445.75;4929209;28;20473;-83
2022/06/17 04:45:22;;;;;;;12.77;7.20;;;;;;;11.76;100.00;155477.88;4949004;28;20035;-80
2022/06/17 04:47:49;;;;;;;10.27;6.88;;;;;;;11.85;100.00;155502.25;4943200;29;20075;-84
2022/06/17 04:50:22;;;;;;;9.82;6.20;;;;;;;11.93;100.00;155521.56;4932606;29;20483;-82
2022/06/17 04:52:51;;;;;;;11.83;6.63;;;;;;;12.00;100.00;155538.28;4959926;28;20043;-80
2022/06/17 04:55:40;;;;;;;15.25;5.95;;;;;;;12.07;100.00;155557.53;4964011;28;20305;-84
2022/06/17 04:58:28;;;;;;;9.32;6.88;;;;;;;12.20;100.00;155588.31;4956649;28;20035;-83
2022/06/17 05:01:03;;;;;;;11.15;6.30;;;;;;;12.25;100.00;155602.44;4952634;29;20063;-82
2022/06/17 05:03:41;;;;;;;14.55;6.32;;;;;;;12.42;100.00;155643.56;4947188;29;20040;-85
2022/06/17 05:06:16;;;;;;;13.20;7.32;;;;;;;12.56;100.00;155679.50;4956816;28;20055;-82
2022/06/17 05:08:59;;;;;;;10.13;7.68;;;;;;;12.71;100.00;155715.50;4958006;28;20061;-83
2022/06/17 05:11:39;;;;;;;17.63;7.13;;;;;;;12.91;100.00;155766.88;4940688;28;20032;-82
2022/06/17 05:14:17;;;;;;;11.50;6.70;;;;;;;12.80;100.00;155738.63;4969849;28;20048;-79
2022/06/17 05:16:43;;;;;;;13.13;7.65;;;;;;;12.92;100.00;155769.47;4926838;29;20123;-82
2022/06/17 05:19:09;;;;;;;14.05;7.38;;;;;;;13.04;100.00;155799.00;4949062;28;20036;-83
2022/06/17 05:21:36;;;;;;;13.15;7.20;;;;;;;13.34;100.00;155873.59;4947512;28;20113;-84
2022/06/17 05:24:12;;;;;;;9.93;6.75;;;;;;;13.39;100.00;155886.41;4952764;28;20035;-82
2022/06/17 05:26:38;;;;;;;10.07;7.28;;;;;;;13.57;100.00;155932.69;4955419;29;20126;-84
2022/06/17 05:29:06;;;;;;;11.38;6.38;;;;;;;13.53;100.00;155922.44;4945525;29;20044;-81
2022/06/17 05:31:35;;;;;;;11.52;6.60;;;;;;;13.51;100.00;155917.28;4924587;29;20036;-85
2022/06/17 05:34:04;;;;;;;11.20;6.15;;;;;;;13.48;100.00;155909.56;4929429;29;20043;-83
2022/06/17 05:36:30;;;;;;;7.90;5.88;;;;;;;13.52;100.00;155919.84;4957632;28;20113;-85
2022/06/17 05:38:57;;;;;;;11.05;5.65;;;;;;;13.73;100.00;155971.25;4949775;28;20122;-84
2022/06/17 05:41:24;;;;;;;12.93;6.35;;;;;;;13.82;100.00;155994.41;4975404;28;20107;-85
2022/06/17 05:43:52;;;;;;;9.57;6.15;;;;;;;13.94;100.00;156024.00;4951840;29;20032;-83
2022/06/17 05:46:26;;;;;;;11.50;6.55;;;;;;;13.98;100.00;156034.28;4955704;28;20038;-83
2022/06/17 05:49:13;;;;;;;11.93;6.00;;;;;;;14.23;100.00;156097.25;4940787;28;20102;-84
2022/06/17 05:51:51;;;;;;;12.05;4.95;;;;;;;14.43;100.00;156146.13;4937694;29;20039;-85
2022/06/17 05:54:38;;;;;;;14.77;5.30;;;;;;;14.54;100.00;156174.41;4940760;29;20097;-85
2022/06/17 05:57:06;;;;;;;8.73;4.63;;;;;;;14.72;100.00;156220.75;4956833;28;20043;-83
2022/06/17 05:59:31;;;;;;;6.82;4.00;;;;;;;14.83;100.00;156246.50;4940684;28;20390;-83
2022/06/17 06:02:01;;;;;;;8.38;4.22;;;;;;;14.82;100.00;156243.91;4939954;28;20035;-82
2022/06/17 06:04:53;;;;;;;10.43;3.83;;;;;;;14.99;100.00;156287.63;4962167;28;20561;-84
2022/06/17 06:07:21;;;;;;;5.05;3.13;;;;;;;15.07;100.00;156306.94;4951035;28;20039;-82
2022/06/17 06:09:47;;;;;;;8.27;3.30;;;;;;;15.20;100.00;156340.44;4944152;28;20133;-82
2022/06/17 06:12:13;;;;;;;9.18;3.20;;;;;;;15.42;100.00;156394.44;4965755;28;20051;-81
2022/06/17 06:14:39;;;;;;;9.85;3.22;;;;;;;15.43;99.33;156398.31;4941482;29;20039;-82
2022/06/17 06:17:05;;;;;;;8.57;3.60;;;;;;;15.71;96.69;156469.09;4933422;28;20035;-79
2022/06/17 06:19:31;;;;;;;7.65;3.20;;;;;;;15.81;96.28;156492.31;4935408;28;20401;-82
2022/06/17 06:21:57;;;;;;;14.10;3.35;;;;;;;15.82;92.04;156494.88;4951504;29;20039;-85
2022/06/17 06:24:23;;;;;;;7.03;3.40;;;;;;;15.98;87.93;156534.78;4946603;28;20050;-83
2022/06/17 06:26:49;;;;;;;12.38;3.25;;;;;;;16.13;88.77;156574.69;4944220;28;20043;-84
2022/06/17 06:29:27;;;;;;;8.52;2.70;;;;;;;16.22;91.21;156596.56;4961734;28;20023;-83
2022/06/17 06:31:54;;;;;;;7.22;3.40;;;;;;;16.33;87.55;156624.91;4952829;29;20039;-83
2022/06/17 06:34:26;;;;;;;6.57;3.30;;;;;;;16.58;84.07;156686.69;4955214;28;20049;-80
2022/06/17 06:36:53;;;;;;;6.35;3.00;;;;;;;16.73;83.93;156725.31;4954187;29;20031;-77
2022/06/17 06:39:19;;;;;;;5.72;2.90;;;;;;;16.78;83.64;156736.88;4942063;28;20052;-79
2022/06/17 06:41:47;;;;;;;6.85;2.72;;;;;;;16.94;84.79;156776.88;4946221;29;20046;-79
2022/06/17 06:44:13;;;;;;;9.57;2.65;;;;;;;17.01;88.05;156794.91;4946688;28;20510;-82
2022/06/17 06:46:57;;;;;;;6.47;3.15;;;;;;;17.22;86.16;156847.72;4916643;29;20047;-79
2022/06/17 06:49:41;;;;;;;10.32;3.22;;;;;;;17.25;84.32;156854.16;4950342;28;20786;-79
2022/06/17 06:52:07;;;;;;;4.35;2.17;;;;;;;17.37;82.38;156883.81;4925993;28;20129;-79
2022/06/17 06:54:32;;;;;;;8.75;3.03;;;;;;;17.43;76.74;156900.53;4928134;29;20043;-78
2022/06/17 06:57:00;;;;;;;4.03;2.38;;;;;;;17.49;77.20;156914.69;4945848;28;20410;-78
2022/06/17 06:59:25;;;;;;;7.43;2.70;;;;;;;17.61;77.74;156945.66;4914602;28;20074;-79
2022/06/17 07:01:51;;;;;;;5.45;2.58;;;;;;;17.61;77.83;156944.31;4928857;29;20685;-79
2022/06/17 07:04:18;;;;;;;5.68;2.80;;;;;;;17.70;75.77;156968.78;4945689;28;20046;-80
2022/06/17 07:06:44;;;;;;;7.75;2.80;;;;;;;17.78;79.86;156988.16;4929164;29;20039;-79
2022/06/17 07:09:12;;;;;;;7.57;2.90;;;;;;;18.02;80.03;157048.75;4954364;28;20043;-80
2022/06/17 07:11:38;;;;;;;6.30;2.40;;;;;;;18.18;79.44;157087.44;4955178;28;20027;-79
2022/06/17 07:14:04;;;;;;;5.85;2.95;;;;;;;18.24;74.69;157102.91;4941570;29;20042;-80
2022/06/17 07:16:30;;;;;;;7.28;2.53;;;;;;;18.20;72.48;157093.88;4908439;28;20047;-78
2022/06/17 07:18:55;;;;;;;4.63;2.25;;;;;;;18.44;77.35;157153.13;4932157;29;20046;-84
2022/06/17 07:21:21;;;;;;;7.80;2.50;;;;;;;18.58;75.32;157187.97;4923902;28;20036;-79
2022/06/17 07:23:46;;;;;;;11.95;3.17;;;;;;;18.71;74.33;157220.19;4917446;28;20539;-79
2022/06/17 07:26:16;;;;;;;8.20;2.55;;;;;;;18.96;70.68;157284.69;4931140;28;20106;-80
2022/06/17 07:28:43;;;;;;;6.97;2.50;;;;;;;19.05;69.49;157306.63;4938149;29;20041;-79
2022/06/17 07:31:08;;;;;;;6.75;3.13;;;;;;;19.14;66.43;157329.84;4945460;28;20230;-77
2022/06/17 07:33:34;;;;;;;6.25;2.25;;;;;;;19.22;71.59;157350.44;4952460;28;20118;-80
2022/06/17 07:36:02;;;;;;;6.25;2.22;;;;;;;19.29;67.48;157367.22;4935177;29;20039;-81
2022/06/17 07:41:17;;;;;;;8.50;2.72;;;;;;;19.59;69.03;157442.00;4952003;28;20043;-79
2022/06/17 07:43:43;;;;;;;5.72;2.08;;;;;;;19.72;65.13;157474.25;4939807;29;20035;-79
2022/06/17 07:46:10;;;;;;;4.22;1.88;;;;;;;19.82;65.29;157500.13;4921679;28;20042;-75
2022/06/17 07:48:38;;;;;;;5.72;2.00;;;;;;;19.84;63.93;157506.56;4924073;29;20418;-81
2022/06/17 07:51:04;;;;;;;7.05;2.10;;;;;;;20.08;65.75;157564.59;4933166;29;20047;-79
2022/06/17 07:53:32;;;;;;;7.38;2.20;;;;;;;20.25;62.26;157607.19;4920590;28;20034;-79
2022/06/17 07:55:59;;;;;;;6.15;2.17;;;;;;;20.40;61.18;157647.19;4943974;29;20075;-80
2022/06/17 07:58:25;;;;;;;6.78;2.00;;;;;;;20.43;63.25;157653.63;4939418;28;20051;-79
2022/06/17 08:00:51;;;;;;;8.05;2.10;;;;;;;20.54;63.82;157682.03;4956939;28;20032;-79
2022/06/17 08:03:18;;;;;;;4.95;1.90;;;;;;;20.59;61.71;157694.94;4947983;28;20503;-81
2022/06/17 08:05:48;;;;;;;6.40;1.90;;;;;;;20.60;60.76;157696.28;4956020;28;20069;-80
2022/06/17 08:08:21;;;;;;;6.38;1.75;;;;;;;20.74;58.99;157731.16;4935100;28;20098;-79
2022/06/17 08:10:52;;;;;;;5.47;1.88;;;;;;;20.97;58.95;157789.22;4934234;28;20042;-80
2022/06/17 08:13:19;;;;;;;6.78;1.80;;;;;;;21.07;60.77;157815.00;4927204;28;20526;-82
2022/06/17 08:15:45;;;;;;;5.38;1.60;;;;;;;;;;4949273;29;20039;-82
2022/06/17 08:18:11;;;;;;;4.25;1.85;;;;;;;21.11;55.15;157825.31;4943471;28;20379;-82
2022/06/17 08:20:38;;;;;;;4.38;2.00;;;;;;;21.13;55.19;157830.47;4942877;28;20069;-82
2022/06/17 08:23:05;;;;;;;6.72;2.40;;;;;;;21.23;54.11;157853.72;4938718;29;20046;-79
2022/06/17 08:25:32;;;;;;;8.38;2.45;;;;;;;21.26;58.89;157861.47;4937985;28;20031;-80
2022/06/17 08:28:02;;;;;;;5.30;2.30;;;;;;;21.48;55.60;157917.06;4933885;29;20050;-79
2022/06/17 08:30:31;;;;;;;6.65;2.50;;;;;;;21.57;57.26;157941.59;4928541;28;20449;-79
2022/06/17 08:32:57;;;;;;;6.20;2.22;;;;;;;21.60;57.32;157946.75;4949343;28;20557;-81
2022/06/17 08:35:26;;;;;;;8.82;2.28;;;;;;;21.65;56.07;157959.66;4929806;28;20042;-80
2022/06/17 08:38:03;;;;;;;4.15;1.65;;;;;;;21.72;56.76;157979.03;4934542;29;20043;-79
2022/06/17 08:40:48;;;;;;;3.45;1.52;;;;;;;21.84;57.34;158008.72;4959713;28;20039;-80
2022/06/17 08:43:38;;;;;;;5.97;2.10;;;;;;;21.97;58.01;158041.00;4933079;28;20510;-79
2022/06/17 08:46:24;;;;;;;5.85;1.58;;;;;;;22.28;55.53;158119.88;4943404;28;20035;-80
2022/06/17 08:49:15;;;;;;;5.40;2.15;;;;;;;22.44;55.35;158158.59;4932169;29;20110;-79
2022/06/17 08:52:15;;;;;;;4.63;2.00;;;;;;;22.20;53.99;158097.84;4919378;29;20050;-80
2022/06/17 08:55:05;;;;;;;6.18;1.95;;;;;;;22.00;59.05;158047.44;4946402;28;20111;-81
2022/06/17 08:57:54;;;;;;;5.78;1.83;;;;;;;21.92;58.88;158028.09;4932611;29;20062;-81
2022/06/17 09:00:25;;;;;;;2.95;1.80;;;;;;;22.00;57.18;158047.44;4944407;28;20521;-79
2022/06/17 09:03:32;;;;;;;4.57;1.80;;;;;;;21.97;57.60;158041.00;4941008;29;20046;-80
2022/06/17 09:06:16;;;;;;;5.20;1.83;;;;;;;22.13;58.32;158081.03;4919450;28;20062;-79
2022/06/17 09:09:11;;;;;;;6.07;1.77;;;;;;;22.13;56.62;158082.34;4937401;29;20141;-79
2022/06/17 09:12:02;;;;;;;6.95;1.50;;;;;;;22.19;58.08;158096.56;4925902;29;20098;-81
2022/06/17 09:15:00;;;;;;;4.80;1.52;;;;;;;22.22;61.87;158104.28;4932379;28;20397;-82
2022/06/17 09:17:41;;;;;;;7.70;1.48;;;;;;;22.19;59.79;158095.22;4924649;28;20043;-85
2022/06/17 09:20:09;;;;;;;3.38;2.00;;;;;;;22.09;56.18;158071.97;4941751;28;20039;-83
2022/06/17 09:22:50;;;;;;;7.40;2.35;;;;;;;22.09;62.65;158071.97;4941413;29;20047;-83
2022/06/17 09:25:23;;;;;;;7.77;1.60;;;;;;;22.23;61.93;158106.88;4946489;28;20035;-82
2022/06/17 09:27:52;;;;;;;6.32;2.20;;;;;;;22.50;59.14;158174.09;4936791;29;20066;-81
2022/06/17 09:30:20;;;;;;;9.32;1.70;;;;;;;22.68;57.82;158220.59;4930071;28;20035;-81
2022/06/17 09:32:54;;;;;;;6.90;1.92;;;;;;;23.18;58.30;158344.69;4947813;28;20079;-82
2022/06/17 09:35:24;;;;;;;5.60;1.88;;;;;;;23.03;55.73;158308.50;4917753;28;20058;-83
2022/06/17 09:38:13;;;;;;;5.53;2.20;;;;;;;23.01;55.67;158303.28;4933973;29;20050;-79
2022/06/17 09:40:42;;;;;;;4.50;1.70;;;;;;;23.13;56.81;158333.03;4957050;28;20129;-83
2022/06/17 09:43:16;;;;;;;3.97;1.92;;;;;;;23.21;55.91;158352.47;4958164;28;20039;-81
2022/06/17 09:46:03;;;;;;;8.40;2.30;;;;;;;23.21;61.49;158352.47;4926492;29;20047;-81
2022/06/17 09:48:34;;;;;;;6.03;2.30;;;;;;;23.29;60.75;158374.41;4946107;28;20118;-82
2022/06/17 09:51:24;;;;;;;11.88;2.10;;;;;;;23.35;60.85;158388.59;4932692;29;20070;-83
2022/06/17 09:54:13;;;;;;;5.63;1.67;;;;;;;23.64;58.73;158460.97;4951531;28;20492;-84
2022/06/17 09:56:45;;;;;;;6.03;2.42;;;;;;;23.74;53.48;158486.84;4897909;29;20073;-82
2022/06/17 09:59:21;;;;;;;7.15;2.10;;;;;;;23.69;58.24;158475.19;4926058;28;20584;-78
2022/06/17 10:01:47;;;;;;;7.05;2.33;;;;;;;23.65;54.72;158463.59;4933401;29;20032;-82
2022/06/17 10:04:16;;;;;;;5.95;2.22;;;;;;;23.50;62.66;158427.38;4924561;28;20058;-79
2022/06/17 10:07:15;;;;;;;3.72;2.30;;;;;;;23.48;54.45;158422.22;4940445;29;20039;-80
2022/06/17 10:09:57;;;;;;;7.68;2.28;;;;;;;23.42;57.05;158405.44;4939752;28;20117;-80
2022/06/17 10:12:41;;;;;;;4.30;2.20;;;;;;;23.57;61.95;158444.19;4945260;28;20476;-81
2022/06/17 10:15:22;;;;;;;7.43;1.90;;;;;;;23.71;64.68;158479.06;4933130;28;20384;-80
2022/06/17 10:21:02;;;;;;;5.30;2.20;;;;;;;23.68;58.41;158471.34;4930990;29;20043;-80
2022/06/17 10:23:37;;;;;;;5.47;2.17;;;;;;;23.78;58.68;158495.91;4934794;28;20089;-81
2022/06/17 10:26:26;;;;;;;6.20;2.70;;;;;;;23.87;53.68;158519.22;4940393;28;20053;-79
2022/06/17 10:29:26;;;;;;;8.43;2.00;;;;;;;23.81;64.04;158503.69;4913055;29;20039;-79
2022/06/17 10:31:52;;;;;;;5.07;2.25;;;;;;;24.07;59.10;158569.59;4941386;28;20031;-79
2022/06/17 10:34:39;;;;;;;9.88;2.70;;;;;;;23.85;58.86;158514.06;4946198;28;20460;-79
2022/06/17 10:37:06;;;;;;;6.30;2.05;;;;;;;23.77;56.10;158493.28;4917099;28;20035;-79
2022/06/17 10:39:35;;;;;;;4.32;2.08;;;;;;;23.80;58.65;158501.13;4934977;28;20118;-81
2022/06/17 10:42:03;;;;;;;6.60;2.30;;;;;;;23.71;52.91;158479.06;4908148;28;20069;-78
2022/06/17 10:44:30;;;;;;;3.10;2.10;;;;;;;24.01;55.15;158555.38;4945649;28;20670;-80
2022/06/17 10:47:15;;;;;;;7.32;2.00;;;;;;;23.97;58.35;158545.06;4917915;29;20497;-80
2022/06/17 10:49:48;;;;;;;7.38;2.20;;;;;;;24.19;54.84;158599.38;4941550;28;20039;-79
2022/06/17 10:52:24;;;;;;;7.35;2.55;;;;;;;24.26;49.92;158617.44;4926452;28;20050;-80
2022/06/17 10:54:51;;;;;;;5.90;2.40;;;;;;;24.36;50.05;158643.31;4947892;28;20498;-80
2022/06/17 10:57:27;;;;;;;9.68;2.33;;;;;;;24.41;53.84;158654.94;4946983;28;20080;-81
2022/06/17 10:59:52;;;;;;;13.32;2.25;;;;;;;24.32;52.62;158633.00;4921681;29;20039;-78
2022/06/17 11:02:24;;;;;;;6.50;1.98;;;;;;;24.08;60.98;158573.50;4931025;28;20040;-78
2022/06/17 11:05:05;;;;;;;7.88;2.15;;;;;;;24.05;53.95;158565.78;4947803;28;20035;-80
2022/06/17 11:07:38;;;;;;;3.72;1.95;;;;;;;24.20;55.03;158601.94;4918172;28;20050;-79
2022/06/17 11:10:13;;;;;;;4.40;2.10;;;;;;;24.09;49.74;158574.78;4925567;28;20072;-81
2022/06/17 11:12:42;;;;;;;7.75;2.40;;;;;;;24.01;49.33;158555.38;4942049;29;20149;-81
2022/06/17 11:15:27;;;;;;;4.55;1.83;;;;;;;23.99;54.88;158550.22;4928470;28;20035;-82
2022/06/17 11:17:57;;;;;;;6.15;2.22;;;;;;;23.88;59.08;158521.78;4921554;29;20537;-78
2022/06/17 11:20:29;;;;;;;2.90;1.80;;;;;;;23.97;60.18;158543.78;4946862;29;20105;-81
2022/06/17 11:23:14;;;;;;;;;;;;;;;23.91;50.11;158529.56;4939073;29;20101;-82
2022/06/17 11:25:41;;;;;;;6.38;2.22;;;;;;;23.81;48.83;158503.69;4922613;28;19966;-81
2022/06/17 11:28:32;;;;;;;5.22;2.00;;;;;;;23.77;51.16;158494.63;4941347;28;20043;-81
2022/06/17 11:31:04;;;;;;;7.20;2.47;;;;;;;23.74;59.02;158486.84;4941746;28;20031;-79
2022/06/17 11:33:57;;;;;;;7.95;2.30;;;;;;;24.01;51.44;158554.09;4929765;28;20051;-80
2022/06/17 11:36:32;;;;;;;4.18;2.45;;;;;;;24.16;50.08;158592.88;4933310;28;20494;-81
2022/06/17 11:39:28;;;;;;;5.80;2.20;;;;;;;24.22;54.19;158607.09;4953589;28;20074;-82
2022/06/17 11:41:55;;;;;;;6.15;2.30;;;;;;;24.02;50.63;158556.72;4961018;28;20035;-84
2022/06/17 11:44:24;;;;;;;5.03;2.30;;;;;;;24.04;54.17;158561.88;4948223;28;20132;-85
2022/06/17 11:46:57;;;;;;;5.53;2.33;;;;;;;24.15;51.89;158590.31;4917799;28;20050;-82
2022/06/17 11:49:24;;;;;;;3.58;2.05;;;;;;;24.04;57.11;158561.88;4919884;29;20059;-82
2022/06/17 11:52:02;;;;;;;4.85;1.80;;;;;;;24.14;56.08;158586.44;4924929;29;20075;-82
2022/06/17 11:54:32;;;;;;;4.72;1.80;;;;;;;24.11;62.37;158580.00;4947954;28;20023;-80
2022/06/17 11:57:11;;;;;;;5.63;2.10;;;;;;;23.89;59.33;158524.38;4975305;28;20039;-81